East Berne, New York
Current Conditions -  °F | °C
As of 5:39 PM on Monday 26 Jan 2015 (Local Time) from KALB Reporting Station
Light Snow Light Snow  
Wind Chill:   Ceiling: 4500
Heat Index: 17°   Visibility: 6mi
Dew Point:   Wind: 12mph
Humidity: 65%   Direction: 10°N
Pressure: 30.03"   Gusts: NA
Location:  42.62°N, 74.07°W
Report Text: KALB 262239Z 01010KT 6SM -SN SCT032 BKN045 OVC050 M08/M14 A3003 RMK AO2 P0000 T10831139
Loading
Personal Weather Stations






























Interactive Weather Map New forecast layout! Learn more

10-Day Weather Forecast

Advertisements
Track Severe Weather on mobile